Stacja Pogody Warszawa Praga Północ 


Stacja Pogody
Warszawa Praga Północ

 Szerokość N 52° 15 '43"    Długość E 21° 01' 22"    Wysokość 89 m n.p.m.


Wschód Słońca 06:22 Górowanie Słońca 12:28 Zachód Słońca 18:34 waga
Data juliańska 2456924.347 Odległość Słońca 150034203 km Średn. kątowa Słońca 0,319°
Wschód Księżyca 05:28 Zachód Księżyca 18:01 Wiek Księżyca 29 dni Moon
Widoczność Księżyca 0,28% Odległość Księżyca 401703 km Średn. kątowa Księżyca 0,297°
Dzień krótszy od najdłuższego o: 04:36 Długość dnia 12:11 Imieniny Tekli, Bogusława, Linusa




Warunki pogodowe uaktualnione 23-09-2014, o godzinie 20:18
Temperatura 9.1 °C ↓ Temperatura odczuwalna 2.5 °C
Punkt rosy 3.9 °C Humidex 8.0 °C
Deszcz na godzinę 0.0 mm Wilgotność względna 70% →
Prędkość wiatru (średnia) 10 km/h → Prędkość wiatru (podmuch) 27 km/h
Kierunek wiatru SE Skala Beaufort'a 4
Ciśnienie względne  1014 hPa Trend ciśnienia wzrost
Ciśnienie bezwzględne  1002 hPa Podstawa chmur 722.1 m
METAR EPWA 231800Z 31008KT CAVOK 08/04 Q1014 NOSIG
TAF TAF EPWA 231730Z 2318/2418 32012KT CAVOK





 a

Valid XHTML 1.0 Transitional Valid CSS!